Maysville, Oklahoma
Current Conditions -  °F | °C
As of 11:35 AM on Saturday 25 Oct 2014 (Local Time) from KPVJ Reporting Station
Clear Clear  
Wind Chill: 78°   Ceiling: Unl
Heat Index: 80°   Visibility: 10mi
Dew Point: 61°   Wind: 8mph
Humidity: 56%   Direction: 210°SSW
Pressure: 30.1"   Gusts: NA
Location:  34.82°N, 97.41°W
Report Text: KPVJ 251635Z AUTO 21007KT 10SM CLR 26/16 A3010 RMK AO2 T02570162
Loading
Personal Weather Stations






























Interactive Weather Map
Tropical Storm Tracking
New forecast layout! Learn more

10-Day Weather Forecast

Advertisements
Track Severe Weather on mobile